New Richmond Regional Airport New Richmond US
ICAO: KRNH
IATA: RNH
Category: Medium
Scheduled Services: No

Elevation: 998 ft
TransAlt. 18000 ft.

Airport Communications:
MINNEAPOLIS APP/DEP:121.2
AWOS 3:120
CTAF/UNICOM:122.975

KRNH Zoom In..

If you have problems with the map follow the link
https://www.worldairports.se/pages/airport.php?
ICAO=KRNH

Runways:

(A) RW 04 length 2050 ft width 75 ft
---- / hdg 42

(B) RW 14 length 5507 ft width 75 ft
---- / hdg 141

(C) RW 22 length 2050 ft width 75 ft
---- / hdg 222

(D) RW 32 length 5507 ft width 75 ft
---- / hdg 321

Location; KRNH
Day. 21 / Time. 18.15 Zulu
* Altimeter: 30.02
* Temperature: 10° c. 50°f.
* Wind from: 220° Speed 09 kn with Gusts up to 14 kn.
Dewpoint: -05° c.
Visibility: 10 Statute Miles.
Clouds: Clear (automated report).

KRNH 211815Z AUTO 22009G14KT 10SM CLR 10/M05 A3002 RMK AO2 T00981050


Wind From 220°
Speed 09 kn.

 
 
jpsmedia.com for Web Design worldairports.se 2018   terms of use